sensor_id;sensor_type;location;lat;lon;timestamp;P1;durP1;ratioP1;P2;durP2;ratioP2
55601;SDS011;59921;51.332;12.410;2023-05-21T00:00:17;7.50;;;6.80;;
55601;SDS011;59921;51.332;12.410;2023-05-21T00:02:44;7.20;;;6.50;;
55601;SDS011;59921;51.332;12.410;2023-05-21T00:05:10;7.63;;;6.82;;
55601;SDS011;59921;51.332;12.410;2023-05-21T00:07:39;7.38;;;6.55;;
55601;SDS011;59921;51.332;12.410;2023-05-21T00:10:05;6.78;;;5.90;;
55601;SDS011;59921;51.332;12.410;2023-05-21T00:12:31;7.28;;;6.40;;
55601;SDS011;59921;51.332;12.410;2023-05-21T00:14:57;6.90;;;6.20;;
55601;SDS011;59921;51.332;12.410;2023-05-21T00:17:23;7.72;;;6.93;;
55601;SDS011;59921;51.332;12.410;2023-05-21T00:19:50;7.20;;;6.50;;
55601;SDS011;59921;51.332;12.410;2023-05-21T00:22:16;6.88;;;6.15;;
55601;SDS011;59921;51.332;12.410;2023-05-21T00:24:41;6.95;;;6.07;;
55601;SDS011;59921;51.332;12.410;2023-05-21T00:27:09;8.10;;;6.40;;
55601;SDS011;59921;51.332;12.410;2023-05-21T00:29:35;6.97;;;6.28;;
55601;SDS011;59921;51.332;12.410;2023-05-21T00:32:00;7.18;;;6.13;;
55601;SDS011;59921;51.332;12.410;2023-05-21T00:34:26;8.10;;;6.63;;
55601;SDS011;59921;51.332;12.410;2023-05-21T00:36:51;8.27;;;7.07;;
55601;SDS011;59921;51.332;12.410;2023-05-21T00:39:17;7.28;;;6.32;;
55601;SDS011;59921;51.332;12.410;2023-05-21T00:41:43;7.22;;;6.22;;
55601;SDS011;59921;51.332;12.410;2023-05-21T00:44:10;7.05;;;6.35;;
55601;SDS011;59921;51.332;12.410;2023-05-21T00:46:38;6.90;;;6.20;;
55601;SDS011;59921;51.332;12.410;2023-05-21T00:49:04;6.93;;;6.22;;
55601;SDS011;59921;51.332;12.410;2023-05-21T00:51:31;6.85;;;6.15;;
55601;SDS011;59921;51.332;12.410;2023-05-21T00:53:57;7.30;;;6.43;;
55601;SDS011;59921;51.332;12.410;2023-05-21T00:56:23;7.78;;;6.15;;
55601;SDS011;59921;51.332;12.410;2023-05-21T00:58:50;7.28;;;6.57;;
55601;SDS011;59921;51.332;12.410;2023-05-21T01:01:16;6.85;;;6.15;;
55601;SDS011;59921;51.332;12.410;2023-05-21T01:03:42;7.20;;;6.30;;
55601;SDS011;59921;51.332;12.410;2023-05-21T01:06:08;6.82;;;6.13;;
55601;SDS011;59921;51.332;12.410;2023-05-21T01:08:35;7.22;;;6.18;;
55601;SDS011;59921;51.332;12.410;2023-05-21T01:11:04;6.95;;;6.18;;
55601;SDS011;59921;51.332;12.410;2023-05-21T01:13:33;6.80;;;6.10;;
55601;SDS011;59921;51.332;12.410;2023-05-21T01:16:02;6.25;;;5.53;;
55601;SDS011;59921;51.332;12.410;2023-05-21T01:18:30;6.82;;;6.13;;
55601;SDS011;59921;51.332;12.410;2023-05-21T01:20:59;6.85;;;6.15;;
55601;SDS011;59921;51.332;12.410;2023-05-21T01:23:25;7.15;;;6.38;;
55601;SDS011;59921;51.332;12.410;2023-05-21T01:25:51;7.15;;;6.45;;
55601;SDS011;59921;51.332;12.410;2023-05-21T01:28:17;6.32;;;5.68;;
55601;SDS011;59921;51.332;12.410;2023-05-21T01:30:42;6.43;;;5.82;;
55601;SDS011;59921;51.332;12.410;2023-05-21T01:33:25;7.15;;;6.15;;
55601;SDS011;59921;51.332;12.410;2023-05-21T01:36:12;6.50;;;5.80;;
55601;SDS011;59921;51.332;12.410;2023-05-21T01:41:26;6.30;;;5.70;;
55601;SDS011;59921;51.332;12.410;2023-05-21T01:43:57;6.80;;;6.10;;
55601;SDS011;59921;51.332;12.410;2023-05-21T01:46:24;6.80;;;6.10;;
55601;SDS011;59921;51.332;12.410;2023-05-21T01:48:53;6.80;;;6.10;;
55601;SDS011;59921;51.332;12.410;2023-05-21T01:51:20;7.22;;;5.95;;
55601;SDS011;59921;51.332;12.410;2023-05-21T01:53:45;7.30;;;6.18;;
55601;SDS011;59921;51.332;12.410;2023-05-21T01:56:11;6.50;;;5.80;;
55601;SDS011;59921;51.332;12.410;2023-05-21T01:58:36;7.18;;;6.47;;
55601;SDS011;59921;51.332;12.410;2023-05-21T02:01:02;6.60;;;5.78;;
55601;SDS011;59921;51.332;12.410;2023-05-21T02:03:29;6.72;;;6.03;;
55601;SDS011;59921;51.332;12.410;2023-05-21T02:05:55;7.63;;;6.53;;
55601;SDS011;59921;51.332;12.410;2023-05-21T02:08:21;6.35;;;5.65;;
55601;SDS011;59921;51.332;12.410;2023-05-21T02:10:47;6.35;;;5.68;;
55601;SDS011;59921;51.332;12.410;2023-05-21T02:13:13;6.60;;;5.65;;
55601;SDS011;59921;51.332;12.410;2023-05-21T02:15:39;6.60;;;5.90;;
55601;SDS011;59921;51.332;12.410;2023-05-21T02:18:04;6.65;;;5.93;;
55601;SDS011;59921;51.332;12.410;2023-05-21T02:20:30;6.82;;;6.05;;
55601;SDS011;59921;51.332;12.410;2023-05-21T02:22:56;6.65;;;5.90;;
55601;SDS011;59921;51.332;12.410;2023-05-21T02:25:21;6.50;;;5.78;;
55601;SDS011;59921;51.332;12.410;2023-05-21T02:27:47;6.10;;;5.38;;
55601;SDS011;59921;51.332;12.410;2023-05-21T02:30:17;6.50;;;5.80;;
55601;SDS011;59921;51.332;12.410;2023-05-21T02:32:44;6.50;;;5.75;;
55601;SDS011;59921;51.332;12.410;2023-05-21T02:35:10;6.57;;;5.88;;
55601;SDS011;59921;51.332;12.410;2023-05-21T02:37:37;6.43;;;5.50;;
55601;SDS011;59921;51.332;12.410;2023-05-21T02:40:06;6.13;;;5.43;;
55601;SDS011;59921;51.332;12.410;2023-05-21T02:42:32;6.90;;;6.07;;
55601;SDS011;59921;51.332;12.410;2023-05-21T02:44:58;6.85;;;5.97;;
55601;SDS011;59921;51.332;12.410;2023-05-21T02:47:24;6.70;;;5.95;;
55601;SDS011;59921;51.332;12.410;2023-05-21T02:49:50;6.10;;;5.50;;
55601;SDS011;59921;51.332;12.410;2023-05-21T02:52:17;6.90;;;5.82;;
55601;SDS011;59921;51.332;12.410;2023-05-21T02:54:44;5.95;;;5.35;;
55601;SDS011;59921;51.332;12.410;2023-05-21T02:57:10;6.25;;;5.65;;
55601;SDS011;59921;51.332;12.410;2023-05-21T02:59:35;6.30;;;5.50;;
55601;SDS011;59921;51.332;12.410;2023-05-21T03:02:01;6.30;;;5.57;;
55601;SDS011;59921;51.332;12.410;2023-05-21T03:04:26;6.45;;;5.78;;
55601;SDS011;59921;51.332;12.410;2023-05-21T03:06:52;6.72;;;5.70;;
55601;SDS011;59921;51.332;12.410;2023-05-21T03:09:22;6.10;;;5.50;;
55601;SDS011;59921;51.332;12.410;2023-05-21T03:11:48;6.00;;;5.40;;
55601;SDS011;59921;51.332;12.410;2023-05-21T03:14:14;6.30;;;5.55;;
55601;SDS011;59921;51.332;12.410;2023-05-21T03:16:40;6.55;;;5.72;;
55601;SDS011;59921;51.332;12.410;2023-05-21T03:19:07;6.22;;;5.63;;
55601;SDS011;59921;51.332;12.410;2023-05-21T03:21:34;6.32;;;5.70;;
55601;SDS011;59921;51.332;12.410;2023-05-21T03:24:00;6.40;;;5.70;;
55601;SDS011;59921;51.332;12.410;2023-05-21T03:26:27;5.85;;;5.25;;
55601;SDS011;59921;51.332;12.410;2023-05-21T03:28:53;5.90;;;5.30;;
55601;SDS011;59921;51.332;12.410;2023-05-21T03:31:22;6.43;;;5.72;;
55601;SDS011;59921;51.332;12.410;2023-05-21T03:33:51;6.53;;;5.82;;
55601;SDS011;59921;51.332;12.410;2023-05-21T03:36:18;6.30;;;5.43;;
55601;SDS011;59921;51.332;12.410;2023-05-21T03:38:43;6.10;;;5.35;;
55601;SDS011;59921;51.332;12.410;2023-05-21T03:41:09;6.47;;;5.78;;
55601;SDS011;59921;51.332;12.410;2023-05-21T03:43:35;6.65;;;5.95;;
55601;SDS011;59921;51.332;12.410;2023-05-21T03:46:00;6.50;;;5.80;;
55601;SDS011;59921;51.332;12.410;2023-05-21T03:48:26;6.00;;;5.40;;
55601;SDS011;59921;51.332;12.410;2023-05-21T03:50:51;6.05;;;5.45;;
55601;SDS011;59921;51.332;12.410;2023-05-21T03:53:17;6.75;;;5.78;;
55601;SDS011;59921;51.332;12.410;2023-05-21T03:55:43;6.07;;;5.47;;
55601;SDS011;59921;51.332;12.410;2023-05-21T03:58:08;6.28;;;5.47;;
55601;SDS011;59921;51.332;12.410;2023-05-21T04:00:35;6.22;;;5.45;;
55601;SDS011;59921;51.332;12.410;2023-05-21T04:03:05;6.38;;;5.68;;
55601;SDS011;59921;51.332;12.410;2023-05-21T04:05:33;6.20;;;5.45;;
55601;SDS011;59921;51.332;12.410;2023-05-21T04:07:59;6.15;;;5.55;;
55601;SDS011;59921;51.332;12.410;2023-05-21T04:10:25;6.43;;;5.32;;
55601;SDS011;59921;51.332;12.410;2023-05-21T04:12:51;5.78;;;4.97;;
55601;SDS011;59921;51.332;12.410;2023-05-21T04:15:17;5.60;;;4.97;;
55601;SDS011;59921;51.332;12.410;2023-05-21T04:17:44;5.80;;;5.20;;
55601;SDS011;59921;51.332;12.410;2023-05-21T04:20:10;5.97;;;5.35;;
55601;SDS011;59921;51.332;12.410;2023-05-21T04:22:47;5.75;;;4.95;;
55601;SDS011;59921;51.332;12.410;2023-05-21T04:25:13;5.85;;;5.25;;
55601;SDS011;59921;51.332;12.410;2023-05-21T04:27:38;6.03;;;5.43;;
55601;SDS011;59921;51.332;12.410;2023-05-21T04:30:04;5.90;;;5.30;;
55601;SDS011;59921;51.332;12.410;2023-05-21T04:32:30;6.00;;;5.38;;
55601;SDS011;59921;51.332;12.410;2023-05-21T04:34:57;5.97;;;5.38;;
55601;SDS011;59921;51.332;12.410;2023-05-21T04:37:25;5.90;;;5.30;;
55601;SDS011;59921;51.332;12.410;2023-05-21T04:39:53;5.38;;;4.88;;
55601;SDS011;59921;51.332;12.410;2023-05-21T04:42:18;5.65;;;5.00;;
55601;SDS011;59921;51.332;12.410;2023-05-21T04:44:48;6.10;;;5.13;;
55601;SDS011;59921;51.332;12.410;2023-05-21T04:47:14;6.05;;;5.45;;
55601;SDS011;59921;51.332;12.410;2023-05-21T04:49:42;5.65;;;5.03;;
55601;SDS011;59921;51.332;12.410;2023-05-21T04:52:08;5.95;;;5.22;;
55601;SDS011;59921;51.332;12.410;2023-05-21T04:54:34;5.93;;;5.30;;
55601;SDS011;59921;51.332;12.410;2023-05-21T04:57:00;5.60;;;5.00;;
55601;SDS011;59921;51.332;12.410;2023-05-21T04:59:26;6.35;;;5.57;;
55601;SDS011;59921;51.332;12.410;2023-05-21T05:01:52;6.25;;;5.60;;
55601;SDS011;59921;51.332;12.410;2023-05-21T05:04:17;5.70;;;4.97;;
55601;SDS011;59921;51.332;12.410;2023-05-21T05:06:43;5.78;;;5.15;;
55601;SDS011;59921;51.332;12.410;2023-05-21T05:09:08;5.97;;;5.38;;
55601;SDS011;59921;51.332;12.410;2023-05-21T05:11:34;5.65;;;5.03;;
55601;SDS011;59921;51.332;12.410;2023-05-21T05:14:00;6.28;;;5.20;;
55601;SDS011;59921;51.332;12.410;2023-05-21T05:16:25;6.68;;;5.75;;
55601;SDS011;59921;51.332;12.410;2023-05-21T05:18:52;6.15;;;5.50;;
55601;SDS011;59921;51.332;12.410;2023-05-21T05:21:17;6.38;;;5.40;;
55601;SDS011;59921;51.332;12.410;2023-05-21T05:23:43;6.00;;;5.32;;
55601;SDS011;59921;51.332;12.410;2023-05-21T05:26:09;6.10;;;5.47;;
55601;SDS011;59921;51.332;12.410;2023-05-21T05:28:35;6.43;;;5.78;;
55601;SDS011;59921;51.332;12.410;2023-05-21T05:31:00;6.28;;;5.60;;
55601;SDS011;59921;51.332;12.410;2023-05-21T05:33:26;6.13;;;5.53;;
55601;SDS011;59921;51.332;12.410;2023-05-21T05:35:52;6.28;;;5.50;;
55601;SDS011;59921;51.332;12.410;2023-05-21T05:38:17;6.68;;;5.75;;
55601;SDS011;59921;51.332;12.410;2023-05-21T05:40:43;6.07;;;5.47;;
55601;SDS011;59921;51.332;12.410;2023-05-21T05:43:08;6.43;;;5.55;;
55601;SDS011;59921;51.332;12.410;2023-05-21T05:45:34;6.75;;;5.88;;
55601;SDS011;59921;51.332;12.410;2023-05-21T05:47:59;6.53;;;5.72;;
55601;SDS011;59921;51.332;12.410;2023-05-21T05:50:25;6.20;;;5.47;;
55601;SDS011;59921;51.332;12.410;2023-05-21T05:52:51;7.20;;;5.70;;
55601;SDS011;59921;51.332;12.410;2023-05-21T05:55:16;7.10;;;6.22;;
55601;SDS011;59921;51.332;12.410;2023-05-21T05:57:42;6.90;;;5.68;;
55601;SDS011;59921;51.332;12.410;2023-05-21T06:00:08;7.22;;;6.35;;
55601;SDS011;59921;51.332;12.410;2023-05-21T06:02:34;7.20;;;6.20;;
55601;SDS011;59921;51.332;12.410;2023-05-21T06:05:01;7.90;;;6.50;;
55601;SDS011;59921;51.332;12.410;2023-05-21T06:07:27;6.53;;;5.75;;
55601;SDS011;59921;51.332;12.410;2023-05-21T06:09:52;7.72;;;6.45;;
55601;SDS011;59921;51.332;12.410;2023-05-21T06:12:17;6.97;;;6.05;;
55601;SDS011;59921;51.332;12.410;2023-05-21T06:14:43;6.70;;;5.90;;
55601;SDS011;59921;51.332;12.410;2023-05-21T06:17:10;7.18;;;6.40;;
55601;SDS011;59921;51.332;12.410;2023-05-21T06:19:36;7.53;;;6.50;;
55601;SDS011;59921;51.332;12.410;2023-05-21T06:22:01;7.30;;;6.38;;
55601;SDS011;59921;51.332;12.410;2023-05-21T06:24:26;7.07;;;6.35;;
55601;SDS011;59921;51.332;12.410;2023-05-21T06:26:52;8.43;;;6.20;;
55601;SDS011;59921;51.332;12.410;2023-05-21T06:29:17;7.38;;;6.32;;
55601;SDS011;59921;51.332;12.410;2023-05-21T06:31:43;7.95;;;6.38;;
55601;SDS011;59921;51.332;12.410;2023-05-21T06:34:08;8.10;;;6.82;;
55601;SDS011;59921;51.332;12.410;2023-05-21T06:36:36;6.93;;;6.18;;
55601;SDS011;59921;51.332;12.410;2023-05-21T06:39:01;7.45;;;6.35;;
55601;SDS011;59921;51.332;12.410;2023-05-21T06:41:27;7.53;;;6.40;;
55601;SDS011;59921;51.332;12.410;2023-05-21T06:43:53;7.85;;;6.40;;
55601;SDS011;59921;51.332;12.410;2023-05-21T06:46:19;7.70;;;6.65;;
55601;SDS011;59921;51.332;12.410;2023-05-21T06:48:44;7.90;;;6.30;;
55601;SDS011;59921;51.332;12.410;2023-05-21T06:51:10;7.95;;;6.60;;
55601;SDS011;59921;51.332;12.410;2023-05-21T06:53:36;7.28;;;6.32;;
55601;SDS011;59921;51.332;12.410;2023-05-21T06:56:01;8.07;;;6.55;;
55601;SDS011;59921;51.332;12.410;2023-05-21T06:58:27;7.50;;;6.40;;
55601;SDS011;59921;51.332;12.410;2023-05-21T07:00:55;8.05;;;6.45;;
55601;SDS011;59921;51.332;12.410;2023-05-21T07:03:21;7.53;;;6.68;;
55601;SDS011;59921;51.332;12.410;2023-05-21T07:05:47;8.30;;;6.72;;
55601;SDS011;59921;51.332;12.410;2023-05-21T07:08:12;7.70;;;6.60;;
55601;SDS011;59921;51.332;12.410;2023-05-21T07:10:38;8.10;;;6.80;;
55601;SDS011;59921;51.332;12.410;2023-05-21T07:13:03;8.07;;;7.10;;
55601;SDS011;59921;51.332;12.410;2023-05-21T07:15:28;8.30;;;6.60;;
55601;SDS011;59921;51.332;12.410;2023-05-21T07:17:54;7.65;;;6.85;;
55601;SDS011;59921;51.332;12.410;2023-05-21T07:20:20;8.07;;;6.90;;
55601;SDS011;59921;51.332;12.410;2023-05-21T07:22:45;8.32;;;6.80;;
55601;SDS011;59921;51.332;12.410;2023-05-21T07:25:10;7.63;;;6.32;;
55601;SDS011;59921;51.332;12.410;2023-05-21T07:27:36;8.00;;;6.70;;
55601;SDS011;59921;51.332;12.410;2023-05-21T07:30:01;8.27;;;7.00;;
55601;SDS011;59921;51.332;12.410;2023-05-21T07:32:27;8.48;;;7.20;;
55601;SDS011;59921;51.332;12.410;2023-05-21T07:34:53;8.20;;;6.95;;
55601;SDS011;59921;51.332;12.410;2023-05-21T07:37:19;9.18;;;7.65;;
55601;SDS011;59921;51.332;12.410;2023-05-21T07:39:45;9.07;;;7.82;;
55601;SDS011;59921;51.332;12.410;2023-05-21T07:42:11;8.43;;;7.05;;
55601;SDS011;59921;51.332;12.410;2023-05-21T07:44:37;8.98;;;7.40;;
55601;SDS011;59921;51.332;12.410;2023-05-21T07:47:02;9.00;;;7.53;;
55601;SDS011;59921;51.332;12.410;2023-05-21T07:49:28;9.38;;;7.63;;
55601;SDS011;59921;51.332;12.410;2023-05-21T07:51:53;8.43;;;7.20;;
55601;SDS011;59921;51.332;12.410;2023-05-21T07:54:19;9.20;;;7.57;;
55601;SDS011;59921;51.332;12.410;2023-05-21T07:56:44;8.60;;;7.45;;
55601;SDS011;59921;51.332;12.410;2023-05-21T07:59:10;8.82;;;7.20;;
55601;SDS011;59921;51.332;12.410;2023-05-21T08:01:35;8.65;;;7.47;;
55601;SDS011;59921;51.332;12.410;2023-05-21T08:04:01;8.90;;;7.32;;
55601;SDS011;59921;51.332;12.410;2023-05-21T08:06:30;8.48;;;7.07;;
55601;SDS011;59921;51.332;12.410;2023-05-21T08:08:58;8.45;;;7.10;;
55601;SDS011;59921;51.332;12.410;2023-05-21T08:11:26;9.95;;;7.65;;
55601;SDS011;59921;51.332;12.410;2023-05-21T08:13:52;8.48;;;7.07;;
55601;SDS011;59921;51.332;12.410;2023-05-21T08:16:17;8.73;;;7.22;;
55601;SDS011;59921;51.332;12.410;2023-05-21T08:18:43;9.10;;;7.32;;
55601;SDS011;59921;51.332;12.410;2023-05-21T08:21:08;9.10;;;7.70;;
55601;SDS011;59921;51.332;12.410;2023-05-21T08:23:34;8.20;;;7.15;;
55601;SDS011;59921;51.332;12.410;2023-05-21T08:25:59;8.63;;;7.28;;
55601;SDS011;59921;51.332;12.410;2023-05-21T08:28:25;8.80;;;7.50;;
55601;SDS011;59921;51.332;12.410;2023-05-21T08:30:52;9.90;;;8.23;;
55601;SDS011;59921;51.332;12.410;2023-05-21T08:33:18;9.68;;;7.88;;
55601;SDS011;59921;51.332;12.410;2023-05-21T08:35:44;8.63;;;7.65;;
55601;SDS011;59921;51.332;12.410;2023-05-21T08:38:09;8.50;;;7.32;;
55601;SDS011;59921;51.332;12.410;2023-05-21T08:40:35;8.73;;;7.63;;
55601;SDS011;59921;51.332;12.410;2023-05-21T08:43:01;8.43;;;7.45;;
55601;SDS011;59921;51.332;12.410;2023-05-21T08:45:27;8.20;;;6.95;;
55601;SDS011;59921;51.332;12.410;2023-05-21T08:48:01;8.75;;;7.55;;
55601;SDS011;59921;51.332;12.410;2023-05-21T08:50:27;9.38;;;8.15;;
55601;SDS011;59921;51.332;12.410;2023-05-21T08:52:53;8.52;;;7.40;;
55601;SDS011;59921;51.332;12.410;2023-05-21T08:55:19;9.55;;;7.85;;
55601;SDS011;59921;51.332;12.410;2023-05-21T08:57:46;8.85;;;7.68;;
55601;SDS011;59921;51.332;12.410;2023-05-21T09:00:15;8.18;;;7.20;;
55601;SDS011;59921;51.332;12.410;2023-05-21T09:02:41;7.80;;;6.85;;
55601;SDS011;59921;51.332;12.410;2023-05-21T09:05:08;8.18;;;7.15;;
55601;SDS011;59921;51.332;12.410;2023-05-21T09:07:42;10.88;;;8.23;;
55601;SDS011;59921;51.332;12.410;2023-05-21T09:10:11;9.80;;;8.35;;
55601;SDS011;59921;51.332;12.410;2023-05-21T09:12:40;11.43;;;8.10;;
55601;SDS011;59921;51.332;12.410;2023-05-21T09:15:08;9.57;;;8.13;;
55601;SDS011;59921;51.332;12.410;2023-05-21T09:17:37;9.32;;;8.32;;
55601;SDS011;59921;51.332;12.410;2023-05-21T09:20:12;9.90;;;8.02;;
55601;SDS011;59921;51.332;12.410;2023-05-21T09:25:10;9.07;;;8.07;;
55601;SDS011;59921;51.332;12.410;2023-05-21T09:27:36;10.02;;;8.30;;
55601;SDS011;59921;51.332;12.410;2023-05-21T09:30:04;9.55;;;7.90;;
55601;SDS011;59921;51.332;12.410;2023-05-21T09:32:34;9.13;;;8.23;;
55601;SDS011;59921;51.332;12.410;2023-05-21T09:35:10;9.32;;;8.35;;
55601;SDS011;59921;51.332;12.410;2023-05-21T09:37:41;8.98;;;7.43;;
55601;SDS011;59921;51.332;12.410;2023-05-21T09:40:26;9.13;;;7.78;;
55601;SDS011;59921;51.332;12.410;2023-05-21T09:42:52;9.27;;;8.10;;
55601;SDS011;59921;51.332;12.410;2023-05-21T09:47:49;8.70;;;7.57;;
55601;SDS011;59921;51.332;12.410;2023-05-21T09:50:19;9.70;;;8.02;;
55601;SDS011;59921;51.332;12.410;2023-05-21T09:52:46;9.13;;;8.10;;
55601;SDS011;59921;51.332;12.410;2023-05-21T09:55:15;10.48;;;8.43;;
55601;SDS011;59921;51.332;12.410;2023-05-21T09:57:41;9.13;;;8.15;;
55601;SDS011;59921;51.332;12.410;2023-05-21T10:00:09;9.60;;;8.25;;
55601;SDS011;59921;51.332;12.410;2023-05-21T10:02:46;9.02;;;7.90;;
55601;SDS011;59921;51.332;12.410;2023-05-21T10:05:12;9.23;;;8.23;;
55601;SDS011;59921;51.332;12.410;2023-05-21T10:07:40;9.32;;;8.32;;
55601;SDS011;59921;51.332;12.410;2023-05-21T10:10:08;9.38;;;8.40;;
55601;SDS011;59921;51.332;12.410;2023-05-21T10:12:38;9.02;;;8.05;;
55601;SDS011;59921;51.332;12.410;2023-05-21T10:15:08;8.75;;;7.85;;
55601;SDS011;59921;51.332;12.410;2023-05-21T10:17:38;11.15;;;8.45;;
55601;SDS011;59921;51.332;12.410;2023-05-21T10:20:05;9.00;;;8.07;;
55601;SDS011;59921;51.332;12.410;2023-05-21T10:22:34;10.00;;;9.00;;
55601;SDS011;59921;51.332;12.410;2023-05-21T10:25:01;8.50;;;7.55;;
55601;SDS011;59921;51.332;12.410;2023-05-21T10:27:28;9.20;;;8.10;;
55601;SDS011;59921;51.332;12.410;2023-05-21T10:29:58;9.25;;;8.30;;
55601;SDS011;59921;51.332;12.410;2023-05-21T10:32:26;9.38;;;8.30;;
55601;SDS011;59921;51.332;12.410;2023-05-21T10:34:55;8.80;;;7.90;;
55601;SDS011;59921;51.332;12.410;2023-05-21T10:37:25;9.20;;;8.18;;
55601;SDS011;59921;51.332;12.410;2023-05-21T10:39:51;8.95;;;8.02;;
55601;SDS011;59921;51.332;12.410;2023-05-21T10:42:25;9.82;;;8.40;;
55601;SDS011;59921;51.332;12.410;2023-05-21T10:46:00;9.15;;;8.02;;
55601;SDS011;59921;51.332;12.410;2023-05-21T10:48:27;9.32;;;8.40;;
55601;SDS011;59921;51.332;12.410;2023-05-21T10:51:23;8.93;;;8.02;;
55601;SDS011;59921;51.332;12.410;2023-05-21T10:56:31;9.27;;;8.20;;
55601;SDS011;59921;51.332;12.410;2023-05-21T11:01:47;9.50;;;8.10;;
55601;SDS011;59921;51.332;12.410;2023-05-21T11:04:26;8.75;;;7.85;;
55601;SDS011;59921;51.332;12.410;2023-05-21T11:06:52;9.15;;;8.25;;
55601;SDS011;59921;51.332;12.410;2023-05-21T11:09:18;8.75;;;7.85;;
55601;SDS011;59921;51.332;12.410;2023-05-21T11:17:08;8.63;;;7.72;;
55601;SDS011;59921;51.332;12.410;2023-05-21T11:22:20;8.90;;;7.80;;
55601;SDS011;59921;51.332;12.410;2023-05-21T11:24:47;8.70;;;7.80;;
55601;SDS011;59921;51.332;12.410;2023-05-21T11:27:28;8.70;;;7.55;;
55601;SDS011;59921;51.332;12.410;2023-05-21T11:29:54;8.45;;;7.55;;
55601;SDS011;59921;51.332;12.410;2023-05-21T11:32:20;8.98;;;8.02;;
55601;SDS011;59921;51.332;12.410;2023-05-21T11:34:48;9.05;;;8.15;;
55601;SDS011;59921;51.332;12.410;2023-05-21T11:39:46;8.90;;;8.00;;
55601;SDS011;59921;51.332;12.410;2023-05-21T11:42:12;8.85;;;7.95;;
55601;SDS011;59921;51.332;12.410;2023-05-21T11:44:44;9.10;;;8.13;;
55601;SDS011;59921;51.332;12.410;2023-05-21T11:47:11;9.88;;;7.88;;
55601;SDS011;59921;51.332;12.410;2023-05-21T11:49:42;8.50;;;7.60;;
55601;SDS011;59921;51.332;12.410;2023-05-21T11:52:08;8.10;;;7.30;;
55601;SDS011;59921;51.332;12.410;2023-05-21T11:54:41;8.93;;;8.02;;
55601;SDS011;59921;51.332;12.410;2023-05-21T11:57:10;8.88;;;7.97;;
55601;SDS011;59921;51.332;12.410;2023-05-21T11:59:40;8.77;;;7.88;;
55601;SDS011;59921;51.332;12.410;2023-05-21T12:02:05;8.50;;;7.57;;
55601;SDS011;59921;51.332;12.410;2023-05-21T12:04:31;9.23;;;8.23;;
55601;SDS011;59921;51.332;12.410;2023-05-21T12:07:09;8.93;;;7.95;;
55601;SDS011;59921;51.332;12.410;2023-05-21T12:12:10;8.00;;;7.20;;
55601;SDS011;59921;51.332;12.410;2023-05-21T12:14:38;8.30;;;7.43;;
55601;SDS011;59921;51.332;12.410;2023-05-21T12:17:10;8.63;;;7.72;;
55601;SDS011;59921;51.332;12.410;2023-05-21T12:19:37;8.38;;;7.43;;
55601;SDS011;59921;51.332;12.410;2023-05-21T12:22:04;8.18;;;7.28;;
55601;SDS011;59921;51.332;12.410;2023-05-21T12:24:31;8.35;;;7.45;;
55601;SDS011;59921;51.332;12.410;2023-05-21T12:27:00;8.40;;;7.50;;
55601;SDS011;59921;51.332;12.410;2023-05-21T12:29:29;9.15;;;7.93;;
55601;SDS011;59921;51.332;12.410;2023-05-21T12:31:59;8.65;;;7.75;;
55601;SDS011;59921;51.332;12.410;2023-05-21T12:37:23;8.80;;;7.70;;
55601;SDS011;59921;51.332;12.410;2023-05-21T12:39:51;8.82;;;7.93;;
55601;SDS011;59921;51.332;12.410;2023-05-21T12:42:25;8.13;;;7.30;;
55601;SDS011;59921;51.332;12.410;2023-05-21T12:44:52;8.38;;;7.47;;
55601;SDS011;59921;51.332;12.410;2023-05-21T12:47:17;8.60;;;7.70;;
55601;SDS011;59921;51.332;12.410;2023-05-21T12:49:44;8.02;;;7.13;;
55601;SDS011;59921;51.332;12.410;2023-05-21T12:52:12;8.48;;;7.57;;
55601;SDS011;59921;51.332;12.410;2023-05-21T12:54:49;8.05;;;7.25;;
55601;SDS011;59921;51.332;12.410;2023-05-21T12:59:54;8.02;;;7.22;;
55601;SDS011;59921;51.332;12.410;2023-05-21T13:04:46;8.50;;;7.60;;
55601;SDS011;59921;51.332;12.410;2023-05-21T13:07:13;8.50;;;7.60;;
55601;SDS011;59921;51.332;12.410;2023-05-21T13:09:40;8.27;;;7.47;;
55601;SDS011;59921;51.332;12.410;2023-05-21T13:12:06;7.53;;;6.72;;
55601;SDS011;59921;51.332;12.410;2023-05-21T13:14:32;8.13;;;7.32;;
55601;SDS011;59921;51.332;12.410;2023-05-21T13:17:00;8.27;;;6.95;;
55601;SDS011;59921;51.332;12.410;2023-05-21T13:19:26;9.13;;;7.65;;
55601;SDS011;59921;51.332;12.410;2023-05-21T13:21:51;9.52;;;8.50;;
55601;SDS011;59921;51.332;12.410;2023-05-21T13:24:17;9.02;;;8.13;;
55601;SDS011;59921;51.332;12.410;2023-05-21T13:26:42;9.45;;;8.13;;
55601;SDS011;59921;51.332;12.410;2023-05-21T13:29:08;9.68;;;8.20;;
55601;SDS011;59921;51.332;12.410;2023-05-21T13:31:33;9.35;;;8.13;;
55601;SDS011;59921;51.332;12.410;2023-05-21T13:33:59;9.63;;;8.02;;
55601;SDS011;59921;51.332;12.410;2023-05-21T13:36:25;8.70;;;7.80;;
55601;SDS011;59921;51.332;12.410;2023-05-21T13:38:51;10.75;;;8.38;;
55601;SDS011;59921;51.332;12.410;2023-05-21T13:41:17;9.30;;;8.35;;
55601;SDS011;59921;51.332;12.410;2023-05-21T13:43:43;8.82;;;7.72;;
55601;SDS011;59921;51.332;12.410;2023-05-21T13:46:08;9.32;;;7.80;;
55601;SDS011;59921;51.332;12.410;2023-05-21T13:48:34;8.75;;;7.93;;
55601;SDS011;59921;51.332;12.410;2023-05-21T13:50:59;15.35;;;9.82;;
55601;SDS011;59921;51.332;12.410;2023-05-21T13:53:25;9.70;;;8.60;;
55601;SDS011;59921;51.332;12.410;2023-05-21T13:55:51;9.52;;;8.38;;
55601;SDS011;59921;51.332;12.410;2023-05-21T13:58:16;10.32;;;8.68;;
55601;SDS011;59921;51.332;12.410;2023-05-21T14:00:42;11.77;;;8.85;;
55601;SDS011;59921;51.332;12.410;2023-05-21T14:03:07;10.30;;;8.88;;
55601;SDS011;59921;51.332;12.410;2023-05-21T14:05:34;9.93;;;8.85;;
55601;SDS011;59921;51.332;12.410;2023-05-21T14:08:00;10.02;;;8.60;;
55601;SDS011;59921;51.332;12.410;2023-05-21T14:10:26;9.68;;;8.50;;
55601;SDS011;59921;51.332;12.410;2023-05-21T14:12:51;11.65;;;8.75;;
55601;SDS011;59921;51.332;12.410;2023-05-21T14:15:17;10.70;;;8.75;;
55601;SDS011;59921;51.332;12.410;2023-05-21T14:17:42;9.63;;;8.60;;
55601;SDS011;59921;51.332;12.410;2023-05-21T14:20:08;10.75;;;9.02;;
55601;SDS011;59921;51.332;12.410;2023-05-21T14:22:34;9.35;;;8.27;;
55601;SDS011;59921;51.332;12.410;2023-05-21T14:24:59;9.35;;;8.35;;
55601;SDS011;59921;51.332;12.410;2023-05-21T14:27:25;10.07;;;8.70;;
55601;SDS011;59921;51.332;12.410;2023-05-21T14:29:50;9.60;;;8.60;;
55601;SDS011;59921;51.332;12.410;2023-05-21T14:32:16;12.38;;;8.60;;
55601;SDS011;59921;51.332;12.410;2023-05-21T14:34:42;9.45;;;8.45;;
55601;SDS011;59921;51.332;12.410;2023-05-21T14:37:07;9.85;;;8.70;;
55601;SDS011;59921;51.332;12.410;2023-05-21T14:39:33;9.20;;;8.20;;
55601;SDS011;59921;51.332;12.410;2023-05-21T14:41:58;10.10;;;8.63;;
55601;SDS011;59921;51.332;12.410;2023-05-21T14:44:24;10.13;;;8.93;;
55601;SDS011;59921;51.332;12.410;2023-05-21T14:46:49;10.20;;;9.10;;
55601;SDS011;59921;51.332;12.410;2023-05-21T14:49:15;9.30;;;8.25;;
55601;SDS011;59921;51.332;12.410;2023-05-21T14:51:40;9.00;;;7.95;;
55601;SDS011;59921;51.332;12.410;2023-05-21T14:54:07;9.73;;;8.73;;
55601;SDS011;59921;51.332;12.410;2023-05-21T14:56:33;9.55;;;8.55;;
55601;SDS011;59921;51.332;12.410;2023-05-21T14:58:58;10.15;;;8.32;;
55601;SDS011;59921;51.332;12.410;2023-05-21T15:01:23;10.02;;;8.43;;
55601;SDS011;59921;51.332;12.410;2023-05-21T15:03:49;8.80;;;7.63;;
55601;SDS011;59921;51.332;12.410;2023-05-21T15:06:15;10.13;;;8.07;;